Time;durP1;ratioP1;P1;durP2;ratioP2;P2;SDS_P1;SDS_P2;PMS_P1;PMS_P2;Temp;Humidity;BMP_temperature;BMP_pressure;BME280_temperature;BME280_humidity;BME280_pressure;Samples;Min_cycle;Max_cycle;Signal;HPM_P1;HPM_P2
2024/03/17 00:00:21;;;;;;;22.03;8.23;;;;;;;1.75;100.00;99634.94;5047202;28;20041;-74
2024/03/17 00:02:47;;;;;;;21.60;8.47;;;;;;;1.72;100.00;99627.28;5060599;28;20056;-77
2024/03/17 00:05:13;;;;;;;22.50;8.67;;;;;;;1.72;100.00;99631.72;5036776;28;20439;-77
2024/03/17 00:07:40;;;;;;;17.23;8.80;;;;;;;1.71;100.00;99637.88;4995866;28;20107;-76
2024/03/17 00:10:10;;;;;;;21.03;7.60;;;;;;;1.69;100.00;99637.16;5019187;28;20057;-78
2024/03/17 00:12:36;;;;;;;27.70;8.60;;;;;;;1.64;100.00;99634.00;4995109;28;20057;-75
2024/03/17 00:15:06;;;;;;;25.47;9.00;;;;;;;1.70;100.00;99630.97;4978558;28;20060;-76
2024/03/17 00:17:32;;;;;;;23.63;7.88;;;;;;;1.62;100.00;99631.47;4978657;28;20076;-76
2024/03/17 00:20:04;;;;;;;16.70;8.10;;;;;;;1.70;100.00;99630.97;4962783;28;20053;-75
2024/03/17 00:22:35;;;;;;;18.87;9.30;;;;;;;1.60;100.00;99628.13;4979370;28;20300;-74
2024/03/17 00:25:01;;;;;;;24.47;8.80;;;;;;;1.58;100.00;99631.78;4994717;28;20120;-75
2024/03/17 00:27:29;;;;;;;23.47;8.77;;;;;;;1.55;100.00;99634.63;4978167;28;20041;-73
2024/03/17 00:29:54;;;;;;;17.57;8.40;;;;;;;1.57;100.00;99630.09;4977874;28;20065;-74
2024/03/17 00:32:20;;;;;;;38.80;9.70;;;;;;;1.56;100.00;99631.91;4978646;28;20037;-74
2024/03/17 00:34:46;;;;;;;24.73;8.90;;;;;;;1.54;100.00;99622.44;4994188;28;20073;-73
2024/03/17 00:37:13;;;;;;;26.07;9.10;;;;;;;1.50;100.00;99618.38;4978145;28;20056;-73
2024/03/17 00:39:39;;;;;;;18.73;8.87;;;;;;;1.50;100.00;99610.53;4994358;28;20038;-74
2024/03/17 00:42:05;;;;;;;24.40;9.03;;;;;;;1.52;100.00;99619.13;4993226;28;20115;-74
2024/03/17 00:44:31;;;;;;;27.53;9.57;;;;;;;1.52;100.00;99614.69;4958613;28;20060;-73
2024/03/17 00:46:58;;;;;;;17.87;8.57;;;;;;;1.56;100.00;99610.09;4974771;28;20050;-73
2024/03/17 00:49:24;;;;;;;22.80;8.93;;;;;;;1.50;100.00;99605.28;4985678;28;20369;-74
2024/03/17 00:51:50;;;;;;;27.43;10.33;;;;;;;1.49;100.00;99614.09;5014195;28;20442;-73
2024/03/17 00:54:18;;;;;;;18.17;9.37;;;;;;;1.54;100.00;99611.97;5014097;28;20053;-72
2024/03/17 00:56:44;;;;;;;19.23;9.53;;;;;;;1.48;100.00;99607.16;4980906;28;20076;-72
2024/03/17 00:59:09;;;;;;;19.40;9.23;;;;;;;1.48;100.00;99601.94;4999197;28;20049;-74
2024/03/17 01:01:35;;;;;;;21.93;9.53;;;;;;;1.49;100.00;99606.25;5014433;28;20490;-74
2024/03/17 01:04:01;;;;;;;22.03;9.47;;;;;;;1.51;100.00;99605.19;5015753;28;20459;-74
2024/03/17 01:06:27;;;;;;;21.03;9.97;;;;;;;1.43;100.00;99606.66;4987651;28;20042;-75
2024/03/17 01:08:53;;;;;;;29.97;9.80;;;;;;;1.44;100.00;99605.69;5020879;28;20067;-74
2024/03/17 01:11:18;;;;;;;19.57;9.30;;;;;;;1.44;100.00;99605.69;5000251;28;20037;-76
2024/03/17 01:13:47;;;;;;;29.70;10.50;;;;;;;1.53;100.00;99598.09;4983051;28;20057;-73
2024/03/17 01:16:13;;;;;;;25.77;9.83;;;;;;;1.47;100.00;99601.09;5049866;28;20139;-78
2024/03/17 01:18:40;;;;;;;23.37;9.23;;;;;;;1.40;100.00;99604.22;5051370;28;20041;-77
2024/03/17 01:21:07;;;;;;;25.67;9.30;;;;;;;1.44;100.00;99595.22;5018210;28;20044;-75
2024/03/17 01:23:32;;;;;;;24.67;11.03;;;;;;;1.37;100.00;99605.25;5034500;28;20045;-75
2024/03/17 01:25:58;;;;;;;21.60;9.33;;;;;;;1.35;100.00;99594.03;5016642;28;20139;-74
2024/03/17 01:28:24;;;;;;;24.90;10.03;;;;;;;1.35;100.00;99580.97;5017281;28;20464;-75
2024/03/17 01:30:51;;;;;;;22.90;9.63;;;;;;;1.41;100.00;99590.19;5018224;28;20053;-74
2024/03/17 01:33:17;;;;;;;21.93;9.27;;;;;;;1.34;100.00;99588.91;5002343;28;20140;-78
2024/03/17 01:35:44;;;;;;;24.17;9.33;;;;;;;1.40;100.00;99589.34;5001650;28;20117;-79
2024/03/17 01:38:11;;;;;;;30.53;9.30;;;;;;;1.33;100.00;99582.88;5018704;28;20434;-80
2024/03/17 01:40:37;;;;;;;31.57;10.27;;;;;;;1.29;100.00;99576.13;5001789;28;20426;-80
2024/03/17 01:43:03;;;;;;;21.87;9.67;;;;;;;1.29;100.00;99581.38;5018154;28;20067;-80
2024/03/17 01:45:34;;;;;;;28.57;9.33;;;;;;;1.35;100.00;99580.16;5018249;28;20095;-79
2024/03/17 01:48:02;;;;;;;20.33;9.18;;;;;;;1.36;100.00;99576.59;4984562;28;20051;-76
2024/03/17 01:50:37;;;;;;;20.50;9.03;;;;;;;1.32;100.00;99575.94;5019961;28;20044;-76
2024/03/17 01:53:05;;;;;;;17.47;8.73;;;;;;;1.31;100.00;99571.66;5037529;28;20053;-76
2024/03/17 01:55:36;;;;;;;18.40;9.17;;;;;;;1.31;100.00;99573.44;5036644;28;20440;-73
2024/03/17 01:58:03;;;;;;;29.07;9.43;;;;;;;1.26;100.00;99570.31;5036967;28;20095;-74
2024/03/17 02:00:31;;;;;;;21.53;9.83;;;;;;;1.24;100.00;99582.63;5053803;28;20053;-75
2024/03/17 02:02:57;;;;;;;20.83;9.23;;;;;;;1.29;100.00;99575.31;5004185;28;20045;-74
2024/03/17 02:05:24;;;;;;;24.03;9.40;;;;;;;1.29;100.00;99564.88;5053990;28;20049;-75
2024/03/17 02:07:50;;;;;;;28.10;9.23;;;;;;;1.24;100.00;99566.94;5055080;28;20048;-75
2024/03/17 02:10:16;;;;;;;23.57;9.20;;;;;;;1.23;100.00;99573.13;5037723;28;20037;-76
2024/03/17 02:12:42;;;;;;;23.23;9.20;;;;;;;1.22;100.00;99564.41;5020598;28;20045;-76
2024/03/17 02:15:10;;;;;;;30.17;9.87;;;;;;;1.19;100.00;99562.00;5021319;28;20045;-77
2024/03/17 02:17:36;;;;;;;21.83;10.23;;;;;;;1.19;100.00;99553.31;5037613;28;20044;-75
2024/03/17 02:20:07;;;;;;;26.60;10.10;;;;;;;1.25;100.00;99558.13;5004131;28;20048;-75
2024/03/17 02:22:40;;;;;;;24.03;9.63;;;;;;;1.27;100.00;99556.28;5021870;28;20083;-77
2024/03/17 02:25:09;;;;;;;27.73;10.47;;;;;;;1.17;100.00;99557.84;5037100;28;20540;-75
2024/03/17 02:27:36;;;;;;;26.13;9.90;;;;;;;1.15;100.00;99549.25;5037223;28;20436;-75
2024/03/17 02:30:04;;;;;;;25.63;10.03;;;;;;;1.19;100.00;99554.16;5053186;28;20045;-76
2024/03/17 02:32:31;;;;;;;27.60;10.13;;;;;;;1.14;100.00;99544.94;5053673;28;20048;-76
2024/03/17 02:34:56;;;;;;;22.43;9.97;;;;;;;1.11;100.00;99542.53;5004313;28;20064;-76
2024/03/17 02:37:22;;;;;;;29.10;11.70;;;;;;;1.12;100.00;99541.59;5020390;28;20118;-76
2024/03/17 02:39:49;;;;;;;26.13;10.10;;;;;;;1.10;100.00;99538.25;5020876;28;20041;-76
2024/03/17 02:42:15;;;;;;;28.30;10.60;;;;;;;1.08;100.00;99532.25;4964495;28;20057;-76
2024/03/17 02:44:41;;;;;;;23.67;11.10;;;;;;;1.07;100.00;99535.81;5013949;28;20049;-78
2024/03/17 02:47:14;;;;;;;30.67;10.40;;;;;;;1.11;100.00;99538.13;5013840;28;20166;-76
2024/03/17 02:49:43;;;;;;;26.67;10.13;;;;;;;1.07;100.00;99533.22;5013987;28;20043;-75
2024/03/17 02:52:11;;;;;;;28.33;10.00;;;;;;;1.08;100.00;99540.97;4998195;28;20971;-76
2024/03/17 02:54:39;;;;;;;22.07;9.77;;;;;;;1.11;100.00;99532.06;5014645;28;20057;-77
2024/03/17 02:57:07;;;;;;;29.43;9.53;;;;;;;1.04;100.00;99542.09;4997953;28;20046;-76
2024/03/17 02:59:33;;;;;;;20.60;9.30;;;;;;;1.06;100.00;99536.78;4961500;28;20631;-77
2024/03/17 03:01:59;;;;;;;23.57;10.47;;;;;;;1.07;100.00;99539.28;4993766;28;20556;-78
2024/03/17 03:04:26;;;;;;;24.60;9.50;;;;;;;1.05;100.00;99525.47;4994055;28;20068;-76
2024/03/17 03:06:52;;;;;;;23.50;10.00;;;;;;;1.00;100.00;99531.94;4978615;28;20152;-74
2024/03/17 03:09:30;;;;;;;26.57;9.77;;;;;;;0.98;100.00;99525.97;4977834;28;20089;-74
2024/03/17 03:11:57;;;;;;;24.50;9.87;;;;;;;0.94;100.00;99530.56;4976616;28;20050;-73
2024/03/17 03:14:23;;;;;;;29.07;9.93;;;;;;;0.94;100.00;99522.72;4992705;28;20046;-73
2024/03/17 03:16:49;;;;;;;23.93;9.67;;;;;;;0.88;100.00;99530.13;4992620;28;20058;-75
2024/03/17 03:19:16;;;;;;;24.00;10.00;;;;;;;0.88;100.00;99514.44;4986435;28;20121;-79
2024/03/17 03:21:42;;;;;;;22.30;9.73;;;;;;;0.88;100.00;99523.13;4980407;28;20086;-79
2024/03/17 03:24:09;;;;;;;20.43;9.67;;;;;;;0.95;100.00;99519.19;4977127;28;20093;-79
2024/03/17 03:26:34;;;;;;;24.93;9.70;;;;;;;0.95;100.00;99513.09;4976828;28;20060;-76
2024/03/17 03:29:01;;;;;;;28.73;10.70;;;;;;;0.93;100.00;99520.22;4976921;28;20174;-77
2024/03/17 03:31:27;;;;;;;23.03;10.33;;;;;;;0.93;100.00;99509.75;4945202;28;20050;-74
2024/03/17 03:33:53;;;;;;;22.00;10.07;;;;;;;0.90;100.00;99509.94;4992784;28;20093;-74
2024/03/17 03:36:18;;;;;;;32.07;10.07;;;;;;;0.88;100.00;99502.22;4976886;28;20058;-75
2024/03/17 03:38:44;;;;;;;31.67;10.80;;;;;;;0.88;100.00;99507.44;4977130;28;20510;-75
2024/03/17 03:41:13;;;;;;;33.47;10.70;;;;;;;0.94;100.00;99498.38;4960189;28;20132;-76
2024/03/17 03:43:39;;;;;;;19.43;9.77;;;;;;;0.96;100.00;99501.69;4977181;28;20137;-77
2024/03/17 03:46:06;;;;;;;21.83;10.17;;;;;;;0.98;100.00;99499.84;5010618;28;20088;-78
2024/03/17 03:48:34;;;;;;;26.27;9.43;;;;;;;0.99;100.00;99501.50;4986554;28;20041;-76
2024/03/17 03:51:04;;;;;;;30.30;10.80;;;;;;;1.02;100.00;99498.69;5002892;28;20037;-75
2024/03/17 03:53:52;;;;;;;24.47;10.00;;;;;;;1.02;100.00;99515.22;5014218;28;20053;-73
2024/03/17 03:56:18;;;;;;;26.93;11.70;;;;;;;0.99;100.00;99511.94;5051926;28;20424;-73
2024/03/17 03:58:46;;;;;;;43.63;10.90;;;;;;;0.96;100.00;99513.00;5018585;28;20072;-73
2024/03/17 04:01:12;;;;;;;24.67;9.77;;;;;;;0.94;100.00;99507.03;5035280;28;20044;-74
2024/03/17 04:03:38;;;;;;;33.90;11.50;;;;;;;0.91;100.00;99504.63;5010772;28;20053;-74
2024/03/17 04:06:10;;;;;;;32.03;10.70;;;;;;;0.98;100.00;99511.13;5010497;28;20135;-78
2024/03/17 04:08:41;;;;;;;25.63;10.43;;;;;;;0.97;100.00;99498.16;4959414;28;20050;-80
2024/03/17 04:11:07;;;;;;;29.53;11.07;;;;;;;0.94;100.00;99499.19;4959169;28;20057;-76
2024/03/17 04:13:35;;;;;;;24.77;10.47;;;;;;;0.95;100.00;99495.66;4975785;28;20074;-78
2024/03/17 04:16:06;;;;;;;24.47;10.43;;;;;;;1.02;100.00;99506.53;4975472;28;20504;-79
2024/03/17 04:18:34;;;;;;;30.47;11.43;;;;;;;1.03;100.00;99503.00;4959224;28;20141;-76
2024/03/17 04:21:04;;;;;;;27.03;10.70;;;;;;;1.01;100.00;99502.25;4959248;28;20042;-77
2024/03/17 04:23:32;;;;;;;26.43;10.33;;;;;;;1.01;100.00;99499.63;4959143;28;20054;-77
2024/03/17 04:25:59;;;;;;;35.13;11.03;;;;;;;1.09;100.00;99500.78;4959602;28;20124;-78
2024/03/17 04:28:25;;;;;;;24.30;10.43;;;;;;;1.14;100.00;99503.09;4975320;28;20050;-73
2024/03/17 04:30:52;;;;;;;26.57;10.57;;;;;;;1.16;100.00;99501.22;4943672;28;20050;-76
2024/03/17 04:33:18;;;;;;;31.57;9.93;;;;;;;1.18;100.00;99502.81;4975830;28;20421;-74
2024/03/17 04:35:44;;;;;;;32.57;10.97;;;;;;;1.21;100.00;99501.75;5017979;28;20147;-76
2024/03/17 04:38:14;;;;;;;38.80;11.00;;;;;;;1.16;100.00;99501.22;4988129;28;20411;-74
2024/03/17 04:40:41;;;;;;;25.60;10.57;;;;;;;1.25;100.00;99503.22;5035705;28;20439;-76
2024/03/17 04:43:08;;;;;;;30.50;10.57;;;;;;;1.27;100.00;99510.03;5018353;28;20040;-76
2024/03/17 04:45:35;;;;;;;28.17;9.77;;;;;;;1.32;100.00;99507.09;5017000;28;20420;-75
2024/03/17 04:48:02;;;;;;;31.03;11.60;;;;;;;1.25;100.00;99511.06;5034031;28;20102;-74
2024/03/17 04:50:31;;;;;;;37.10;11.37;;;;;;;1.31;100.00;99510.63;5017734;28;20487;-75
2024/03/17 04:52:59;;;;;;;29.70;10.10;;;;;;;1.35;100.00;99506.91;5019523;28;20361;-72
2024/03/17 04:55:25;;;;;;;28.63;10.63;;;;;;;1.34;100.00;99513.06;5018219;28;20080;-78
2024/03/17 04:57:52;;;;;;;27.13;10.73;;;;;;;1.42;100.00;99506.38;4962213;28;20057;-72
2024/03/17 05:00:18;;;;;;;22.03;9.90;;;;;;;1.48;100.00;99516.41;4977541;28;20057;-73
2024/03/17 05:02:45;;;;;;;20.93;9.20;;;;;;;1.59;100.00;99511.28;4938749;28;20493;-72
2024/03/17 05:05:11;;;;;;;31.80;9.80;;;;;;;1.66;100.00;99511.72;4923058;28;20050;-73
2024/03/17 05:07:38;;;;;;;21.70;9.87;;;;;;;1.85;100.00;99512.09;4922811;28;20054;-73
2024/03/17 05:10:05;;;;;;;20.07;8.93;;;;;;;1.93;100.00;99519.41;4923106;28;20114;-73
2024/03/17 05:12:32;;;;;;;22.97;9.53;;;;;;;2.03;100.00;99513.44;4939378;28;20061;-74
2024/03/17 05:14:58;;;;;;;16.70;7.73;;;;;;;2.22;100.00;99523.44;4919728;29;20062;-69
2024/03/17 05:17:24;;;;;;;26.67;9.07;;;;;;;2.24;100.00;99514.56;4919351;29;20074;-69
2024/03/17 05:19:50;;;;;;;25.27;9.10;;;;;;;2.30;100.00;99508.88;4935247;29;20461;-71
2024/03/17 05:22:16;;;;;;;16.20;8.03;;;;;;;2.50;100.00;99520.53;4903913;29;20388;-70
2024/03/17 05:24:43;;;;;;;22.77;9.40;;;;;;;2.58;100.00;99519.06;4901669;29;20411;-70
2024/03/17 05:27:10;;;;;;;26.77;10.73;;;;;;;2.70;100.00;99523.41;4871882;29;20076;-70
2024/03/17 05:29:37;;;;;;;33.90;10.23;;;;;;;2.74;100.00;99521.38;4902383;29;20097;-70
2024/03/17 05:32:05;;;;;;;24.23;9.73;;;;;;;2.79;100.00;99520.13;4954895;28;20043;-70
2024/03/17 05:34:32;;;;;;;35.03;11.27;;;;;;;2.73;100.00;99531.06;4973919;28;20073;-69
2024/03/17 05:36:59;;;;;;;25.30;10.97;;;;;;;2.66;100.00;99521.94;4993949;28;20053;-69
2024/03/17 05:39:25;;;;;;;31.53;10.40;;;;;;;2.66;100.00;99527.19;4992362;28;20074;-74
2024/03/17 05:41:53;;;;;;;18.80;9.33;;;;;;;2.95;100.00;99531.13;4975419;28;20136;-71
2024/03/17 05:44:18;;;;;;;20.50;10.37;;;;;;;3.06;100.00;99519.88;4976041;28;20347;-71
2024/03/17 05:46:46;;;;;;;23.70;10.17;;;;;;;3.26;100.00;99527.06;4956769;28;20177;-69
2024/03/17 05:49:12;;;;;;;25.30;9.20;;;;;;;3.37;100.00;99519.22;4972271;28;20091;-71
2024/03/17 05:51:38;;;;;;;29.80;10.63;;;;;;;3.42;100.00;99532.84;4943651;28;20145;-71
2024/03/17 05:54:04;;;;;;;29.70;10.33;;;;;;;3.42;100.00;99527.59;4943977;28;20082;-73
2024/03/17 05:56:31;;;;;;;25.43;9.93;;;;;;;3.58;100.00;99528.13;4996853;28;20427;-68
2024/03/17 05:58:57;;;;;;;28.80;10.00;;;;;;;3.62;100.00;99524.28;5016121;28;20050;-73
2024/03/17 06:01:23;;;;;;;24.73;8.93;;;;;;;3.63;100.00;99525.16;4999716;28;20442;-72
2024/03/17 06:03:49;;;;;;;25.77;10.03;;;;;;;3.77;100.00;99523.13;4983252;28;20199;-69
2024/03/17 06:06:18;;;;;;;22.67;8.47;;;;;;;3.80;100.00;99525.50;4992832;28;20062;-69
2024/03/17 06:08:44;;;;;;;25.73;10.30;;;;;;;3.84;100.00;99519.06;4956528;28;20176;-69
2024/03/17 06:11:11;;;;;;;31.63;9.80;;;;;;;3.94;100.00;99521.78;4957014;28;20098;-71
2024/03/17 06:13:36;;;;;;;38.07;9.50;;;;;;;3.97;100.00;99519.78;4957048;28;20062;-71
2024/03/17 06:16:04;;;;;;;23.90;9.13;;;;;;;4.01;100.00;99521.22;4941221;28;20053;-71
2024/03/17 06:18:33;;;;;;;23.07;9.40;;;;;;;4.06;100.00;99520.88;4957210;28;20057;-70
2024/03/17 06:20:58;;;;;;;25.03;9.03;;;;;;;4.09;100.00;99518.81;4960740;28;20046;-72
2024/03/17 06:23:28;;;;;;;25.40;8.03;;;;;;;4.20;100.00;99516.19;4992723;28;20062;-72
2024/03/17 06:25:55;;;;;;;26.20;8.57;;;;;;;4.29;100.00;99512.00;4976408;28;20062;-71
2024/03/17 06:28:26;;;;;;;22.23;8.93;;;;;;;4.45;100.00;99501.91;4977041;28;20901;-74
2024/03/17 06:31:00;;;;;;;33.30;10.48;;;;;;;4.57;100.00;99509.66;4930069;28;20055;-74
2024/03/17 06:33:32;;;;;;;19.27;7.97;;;;;;;4.67;100.00;99513.25;4930188;28;20139;-70
2024/03/17 06:36:04;;;;;;;21.53;8.13;;;;;;;4.89;100.00;99512.31;4930519;28;20089;-77
2024/03/17 06:38:42;;;;;;;20.20;7.93;;;;;;;5.14;100.00;99502.28;4903993;29;20150;-82
2024/03/17 06:41:15;;;;;;;11.87;6.80;;;;;;;5.45;100.00;99491.81;4906326;29;20059;-73
2024/03/17 06:43:43;;;;;;;16.60;7.57;;;;;;;5.75;100.00;99502.41;4905438;29;20061;-73
2024/03/17 06:46:10;;;;;;;15.43;6.87;;;;;;;6.16;100.00;99497.03;4883056;29;20060;-73
2024/03/17 06:48:36;;;;;;;25.10;8.10;;;;;;;6.46;100.00;99494.34;4897348;29;20060;-72
2024/03/17 06:51:03;;;;;;;18.02;6.95;;;;;;;6.83;100.00;99498.84;4865341;29;20205;-70
2024/03/17 06:53:29;;;;;;;15.05;6.43;;;;;;;7.18;100.00;99500.13;4850337;29;20056;-69
2024/03/17 06:55:55;;;;;;;20.23;7.90;;;;;;;7.60;100.00;99502.28;4846462;29;20052;-70
2024/03/17 06:58:23;;;;;;;13.40;6.30;;;;;;;8.01;100.00;99503.69;4877472;29;20087;-69
2024/03/17 07:01:00;;;;;;;23.90;6.72;;;;;;;8.23;98.13;99503.34;4877797;29;20089;-69
2024/03/17 07:03:30;;;;;;;24.88;8.07;;;;;;;8.54;95.73;99499.41;4862067;29;20140;-72
2024/03/17 07:05:58;;;;;;;27.60;8.35;;;;;;;8.52;90.78;99501.38;4877471;29;20068;-71
2024/03/17 07:08:25;;;;;;;27.15;8.50;;;;;;;8.42;89.31;99495.31;4881144;29;20080;-72
2024/03/17 07:11:02;;;;;;;26.60;8.43;;;;;;;8.29;89.25;99492.16;4936952;29;20051;-71
2024/03/17 07:13:30;;;;;;;24.95;8.93;;;;;;;8.38;89.24;99489.47;4952947;29;20051;-72
2024/03/17 07:15:56;;;;;;;22.27;9.35;;;;;;;8.76;89.43;99488.41;4953252;28;20500;-72
2024/03/17 07:18:22;;;;;;;26.77;9.50;;;;;;;9.39;84.83;99489.13;4962352;28;20034;-71
2024/03/17 07:20:48;;;;;;;23.25;9.07;;;;;;;10.09;80.35;99491.59;4978532;28;20054;-71
2024/03/17 07:23:15;;;;;;;23.55;7.13;;;;;;;10.95;75.57;99487.72;5011244;28;20038;-70
2024/03/17 07:25:42;;;;;;;19.23;7.80;;;;;;;11.59;70.00;99487.75;4978926;28;20108;-71
2024/03/17 07:28:09;;;;;;;21.23;8.10;;;;;;;12.53;65.20;99486.81;4962382;28;20053;-72
2024/03/17 07:30:35;;;;;;;18.98;8.48;;;;;;;13.45;59.50;99484.88;4978657;28;20116;-71
2024/03/17 07:33:01;;;;;;;26.33;7.88;;;;;;;14.12;54.78;99488.41;5005880;28;20081;-73
2024/03/17 07:35:27;;;;;;;20.83;8.13;;;;;;;14.64;51.87;99483.78;5051166;28;20407;-74
2024/03/17 07:37:54;;;;;;;26.98;8.75;;;;;;;15.00;49.87;99479.25;5018664;28;20047;-71
2024/03/17 07:40:20;;;;;;;17.25;6.70;;;;;;;15.06;47.51;99485.69;5035149;28;20041;-71
2024/03/17 07:42:46;;;;;;;11.57;5.78;;;;;;;14.95;47.71;99479.00;5034878;28;20218;-70
2024/03/17 07:45:13;;;;;;;14.50;6.85;;;;;;;14.90;47.28;99473.38;5034683;28;20041;-69
2024/03/17 07:47:40;;;;;;;18.08;6.30;;;;;;;14.76;47.08;99474.25;5050800;28;20045;-71
2024/03/17 07:50:06;;;;;;;12.63;6.60;;;;;;;14.70;46.80;99480.34;5018490;28;20044;-72
2024/03/17 07:52:34;;;;;;;14.98;5.97;;;;;;;14.56;47.14;99485.75;4997789;28;20065;-70
2024/03/17 07:55:00;;;;;;;14.80;6.13;;;;;;;14.41;47.19;99474.22;4982142;28;20060;-73
2024/03/17 07:57:29;;;;;;;22.95;7.75;;;;;;;14.20;47.09;99471.44;4998122;28;20061;-72
2024/03/17 07:59:54;;;;;;;15.63;7.05;;;;;;;14.10;47.37;99474.41;4997695;28;20042;-76
2024/03/17 08:02:20;;;;;;;21.67;6.82;;;;;;;13.95;47.43;99467.38;4977988;28;20037;-79
2024/03/17 08:04:47;;;;;;;22.08;7.20;;;;;;;13.84;48.06;99462.53;4985453;28;20139;-73
2024/03/17 08:07:13;;;;;;;20.95;6.80;;;;;;;13.70;48.26;99472.16;4985947;28;20045;-72
2024/03/17 08:09:38;;;;;;;21.88;7.45;;;;;;;13.18;48.94;99460.63;4973358;28;21260;-69
2024/03/17 08:12:04;;;;;;;20.30;7.15;;;;;;;13.18;49.94;99456.13;4972933;28;20249;-70
2024/03/17 08:14:32;;;;;;;17.75;6.72;;;;;;;13.30;49.20;99454.69;4957845;28;20155;-70
2024/03/17 08:17:00;;;;;;;17.05;6.55;;;;;;;13.39;49.42;99455.47;4927707;28;20204;-71
2024/03/17 08:19:26;;;;;;;21.83;7.38;;;;;;;13.74;48.82;99460.13;4972390;28;20048;-67
2024/03/17 08:21:52;;;;;;;20.45;7.38;;;;;;;13.75;48.36;99458.25;4969258;28;20050;-70
2024/03/17 08:24:24;;;;;;;23.95;8.63;;;;;;;13.52;48.21;99458.31;4972667;28;20052;-74
2024/03/17 08:26:50;;;;;;;22.27;7.65;;;;;;;13.18;48.64;99461.44;4921677;29;20446;-71
2024/03/17 08:29:16;;;;;;;26.30;8.10;;;;;;;12.83;49.07;99448.69;4955862;28;20050;-72
2024/03/17 08:31:45;;;;;;;23.67;7.80;;;;;;;12.77;50.59;99437.91;4954389;28;20055;-68
2024/03/17 08:34:10;;;;;;;20.45;7.90;;;;;;;13.26;50.74;99441.88;4938956;28;20073;-71
2024/03/17 08:36:39;;;;;;;26.65;8.40;;;;;;;13.44;49.46;99445.88;4954384;28;20439;-73
2024/03/17 08:39:04;;;;;;;19.05;7.60;;;;;;;13.70;49.17;99445.47;4987205;28;20069;-72
2024/03/17 08:41:31;;;;;;;16.92;7.35;;;;;;;13.93;48.25;99445.41;4945254;28;20158;-69
2024/03/17 08:43:57;;;;;;;26.83;8.32;;;;;;;13.83;47.46;99455.50;4970121;28;20049;-72
2024/03/17 08:46:23;;;;;;;27.83;8.43;;;;;;;13.55;47.64;99442.78;4922409;28;20053;-73
2024/03/17 08:48:49;;;;;;;20.00;7.68;;;;;;;13.35;49.19;99438.97;4922618;28;20062;-71
2024/03/17 08:51:15;;;;;;;23.42;6.93;;;;;;;14.00;48.97;99440.97;4954392;28;20058;-72
2024/03/17 08:53:43;;;;;;;40.05;9.10;;;;;;;14.36;47.34;99441.91;4922769;28;20061;-72
2024/03/17 08:56:08;;;;;;;21.83;7.20;;;;;;;14.76;46.85;99438.69;4970578;28;20043;-70
2024/03/17 08:58:35;;;;;;;23.88;7.45;;;;;;;15.49;45.41;99444.53;4968644;28;20054;-74
2024/03/17 09:01:07;;;;;;;28.67;7.93;;;;;;;16.97;42.71;99436.66;4976671;28;20042;-71
2024/03/17 09:03:36;;;;;;;34.05;8.05;;;;;;;18.21;39.66;99433.91;5019179;28;20045;-74
2024/03/17 09:06:18;;;;;;;38.92;8.38;;;;;;;18.98;37.55;99431.09;5051659;28;20076;-74
2024/03/17 09:08:46;;;;;;;50.90;9.70;;;;;;;18.74;36.23;99443.47;5058102;28;20467;-74
2024/03/17 09:11:13;;;;;;;25.05;6.90;;;;;;;18.04;36.88;99438.94;5041999;28;20518;-74
2024/03/17 09:13:40;;;;;;;26.55;6.93;;;;;;;17.72;37.59;99430.94;5041829;28;20037;-70
2024/03/17 09:16:05;;;;;;;33.13;7.15;;;;;;;17.05;38.44;99439.16;5019295;28;20178;-74
2024/03/17 09:18:33;;;;;;;31.88;7.35;;;;;;;17.07;38.80;99429.03;5069445;28;20496;-73
2024/03/17 09:21:00;;;;;;;35.10;7.35;;;;;;;16.24;39.85;99425.84;5050808;28;20479;-75
2024/03/17 09:23:28;;;;;;;35.63;7.38;;;;;;;15.55;41.11;99429.53;5050419;28;20036;-74
2024/03/17 09:26:03;;;;;;;35.17;6.85;;;;;;;15.02;42.63;99434.41;5043125;28;20159;-75
2024/03/17 09:28:30;;;;;;;35.70;7.55;;;;;;;14.40;43.87;99424.47;5049844;28;20045;-69
2024/03/17 09:30:56;;;;;;;25.83;6.07;;;;;;;14.53;45.14;99424.66;5042714;28;20068;-69
2024/03/17 09:33:24;;;;;;;21.85;5.47;;;;;;;14.74;45.69;99428.19;5059193;28;20121;-66
2024/03/17 09:36:07;;;;;;;32.33;7.53;;;;;;;15.75;44.33;99430.50;5011336;28;627431;-73
2024/03/17 09:38:34;;;;;;;31.98;6.93;;;;;;;16.49;43.03;99430.53;5050464;28;20175;-73
2024/03/17 09:41:00;;;;;;;31.40;7.00;;;;;;;17.51;40.80;99431.16;5009546;28;20057;-74
2024/03/17 09:43:35;;;;;;;34.03;6.70;;;;;;;18.19;38.47;99444.03;4993211;28;20404;-73
2024/03/17 09:46:05;;;;;;;30.00;6.50;;;;;;;18.08;38.64;99431.28;4997150;28;20053;-75
2024/03/17 09:48:33;;;;;;;30.38;6.68;;;;;;;17.72;38.24;99430.94;5010058;28;20135;-74
2024/03/17 09:51:02;;;;;;;21.17;5.35;;;;;;;18.16;39.06;99434.56;4993096;28;20054;-74
2024/03/17 09:53:30;;;;;;;22.13;5.20;;;;;;;19.25;37.10;99424.50;5022417;28;20042;-76
2024/03/17 09:56:01;;;;;;;28.25;5.95;;;;;;;21.29;34.16;99422.81;5003459;28;20054;-77
2024/03/17 09:58:27;;;;;;;26.67;5.90;;;;;;;22.86;30.73;99424.22;5004038;28;20030;-75
2024/03/17 10:00:53;;;;;;;21.23;5.85;;;;;;;22.11;29.89;99430.75;5017513;28;20435;-74
2024/03/17 10:03:41;;;;;;;35.85;7.38;;;;;;;20.32;30.78;99424.97;5011383;28;20045;-74
2024/03/17 10:06:11;;;;;;;41.78;6.78;;;;;;;18.88;32.64;99420.00;4960071;28;20041;-73
2024/03/17 10:08:44;;;;;;;30.08;6.55;;;;;;;18.05;34.18;99418.28;5009887;28;20052;-74
2024/03/17 10:11:11;;;;;;;25.15;6.25;;;;;;;17.96;34.42;99425.72;5019605;28;20052;-75
2024/03/17 10:13:37;;;;;;;37.45;6.88;;;;;;;17.99;34.48;99424.50;5037266;28;20052;-75
2024/03/17 10:16:04;;;;;;;27.98;6.05;;;;;;;17.32;35.20;99403.25;5053517;28;20059;-74
2024/03/17 10:18:31;;;;;;;43.88;9.10;;;;;;;17.06;36.15;99415.81;5020778;28;20044;-74
2024/03/17 10:20:58;;;;;;;34.10;6.80;;;;;;;16.71;36.03;99413.28;5036516;28;20102;-74
2024/03/17 10:23:25;;;;;;;21.83;5.35;;;;;;;15.84;37.36;99407.91;5053389;28;20048;-74
2024/03/17 10:25:52;;;;;;;36.33;7.25;;;;;;;15.27;38.93;99401.94;5054652;28;20055;-74
2024/03/17 10:28:21;;;;;;;44.08;7.22;;;;;;;14.88;39.75;99405.06;5020925;28;20128;-74
2024/03/17 10:31:00;;;;;;;29.50;7.80;;;;;;;14.63;40.78;99401.94;5036995;28;20479;-73
2024/03/17 10:33:27;;;;;;;39.72;6.10;;;;;;;14.06;42.31;99406.34;5053401;28;20076;-74
2024/03/17 10:36:01;;;;;;;27.63;6.35;;;;;;;13.96;43.51;99403.13;5019304;28;20501;-74
2024/03/17 10:38:28;;;;;;;46.83;7.50;;;;;;;13.75;44.03;99388.84;5053396;28;20052;-74
2024/03/17 10:40:54;;;;;;;38.72;6.40;;;;;;;13.49;45.06;99378.66;5020093;28;20152;-74
2024/03/17 10:43:24;;;;;;;37.03;6.80;;;;;;;13.44;45.66;99379.19;5070303;28;20156;-73
2024/03/17 10:45:54;;;;;;;;;;;;;;;13.32;46.45;99380.66;5069609;28;20047;-74
2024/03/17 10:48:22;;;;;;;36.95;8.15;;;;;;;13.65;47.10;99383.81;5036802;28;19920;-74
2024/03/17 10:50:49;;;;;;;43.92;7.97;;;;;;;14.68;44.92;99382.66;5036563;28;20132;-74
2024/03/17 10:53:25;;;;;;;29.10;6.57;;;;;;;14.50;44.37;99382.28;5053002;28;20037;-72
2024/03/17 10:56:00;;;;;;;16.35;6.93;;;;;;;14.71;44.79;99383.13;5053293;28;20072;-73
2024/03/17 10:58:34;;;;;;;32.35;7.03;;;;;;;14.46;44.53;99389.00;5069457;28;20047;-73
2024/03/17 11:01:05;;;;;;;28.45;6.60;;;;;;;14.02;45.25;99394.41;5036239;28;20483;-74
2024/03/17 11:03:35;;;;;;;;;;;;;;;13.21;47.55;99378.41;5037347;28;20124;-74
2024/03/17 11:06:05;;;;;;;35.53;7.20;;;;;;;12.57;50.42;99384.25;5052839;28;19959;-75
2024/03/17 11:08:34;;;;;;;24.58;5.75;;;;;;;11.82;54.11;99383.13;5036113;28;20155;-73
2024/03/17 11:11:00;;;;;;;25.35;5.85;;;;;;;11.37;57.21;99390.03;5035778;28;20053;-74
2024/03/17 11:13:27;;;;;;;29.40;6.28;;;;;;;11.00;60.65;99382.59;5035605;28;20037;-73
2024/03/17 11:15:57;;;;;;;27.58;5.63;;;;;;;10.69;64.86;99378.09;5052505;28;20112;-73
2024/03/17 11:18:23;;;;;;;28.27;5.68;;;;;;;10.35;68.91;99374.75;5036069;28;20275;-73
2024/03/17 11:21:10;;;;;;;22.52;5.75;;;;;;;10.35;71.30;99378.22;5001542;28;20052;-73
2024/03/17 11:23:40;;;;;;;30.13;7.50;;;;;;;10.19;72.47;99386.16;5035532;28;20382;-74
2024/03/17 11:26:07;;;;;;;31.67;6.57;;;;;;;9.93;75.74;99369.47;5019859;28;20382;-73